sensor_id;sensor_type;location;lat;lon;timestamp;temperature;humidity
52435;DHT22;38354;52.892;6.148;2023-03-14T04:02:39;8.90;99.90
52435;DHT22;38354;52.892;6.148;2023-03-14T04:05:05;8.90;99.90
52435;DHT22;38354;52.892;6.148;2023-03-14T04:07:32;8.90;99.90
52435;DHT22;38354;52.892;6.148;2023-03-14T04:09:58;8.90;99.90
52435;DHT22;38354;52.892;6.148;2023-03-14T04:12:23;8.90;99.90
52435;DHT22;38354;52.892;6.148;2023-03-14T04:14:49;8.90;99.90
52435;DHT22;38354;52.892;6.148;2023-03-14T04:17:15;9.00;99.90
52435;DHT22;38354;52.892;6.148;2023-03-14T04:19:40;9.00;99.90
52435;DHT22;38354;52.892;6.148;2023-03-14T04:22:07;8.90;99.90
52435;DHT22;38354;52.892;6.148;2023-03-14T04:24:33;9.00;99.90
52435;DHT22;38354;52.892;6.148;2023-03-14T04:26:59;9.00;99.90
52435;DHT22;38354;52.892;6.148;2023-03-14T04:29:24;9.00;99.90
52435;DHT22;38354;52.892;6.148;2023-03-14T04:31:50;9.00;99.90
52435;DHT22;38354;52.892;6.148;2023-03-14T04:34:15;8.90;99.90
52435;DHT22;38354;52.892;6.148;2023-03-14T04:36:41;8.90;99.90
52435;DHT22;38354;52.892;6.148;2023-03-14T04:39:07;9.00;99.90
52435;DHT22;38354;52.892;6.148;2023-03-14T04:41:33;9.00;99.90
52435;DHT22;38354;52.892;6.148;2023-03-14T04:43:59;8.90;99.90
52435;DHT22;38354;52.892;6.148;2023-03-14T04:46:24;8.90;99.90
52435;DHT22;38354;52.892;6.148;2023-03-14T04:48:50;8.90;99.90
52435;DHT22;38354;52.892;6.148;2023-03-14T04:51:15;8.90;99.90
52435;DHT22;38354;52.892;6.148;2023-03-14T04:53:41;8.90;99.90
52435;DHT22;38354;52.892;6.148;2023-03-14T04:56:07;9.00;99.90
52435;DHT22;38354;52.892;6.148;2023-03-14T04:58:33;9.00;99.90
52435;DHT22;38354;52.892;6.148;2023-03-14T05:01:03;9.00;99.90
52435;DHT22;38354;52.892;6.148;2023-03-14T05:03:29;9.00;99.90
52435;DHT22;38354;52.892;6.148;2023-03-14T05:05:54;9.00;99.90
52435;DHT22;38354;52.892;6.148;2023-03-14T05:08:20;9.00;99.90
52435;DHT22;38354;52.892;6.148;2023-03-14T05:10:55;9.00;99.90
52435;DHT22;38354;52.892;6.148;2023-03-14T05:13:20;9.00;99.90
52435;DHT22;38354;52.892;6.148;2023-03-14T05:15:46;8.90;99.90
52435;DHT22;38354;52.892;6.148;2023-03-14T05:18:12;8.90;99.90
52435;DHT22;38354;52.892;6.148;2023-03-14T05:20:37;8.90;99.90
52435;DHT22;38354;52.892;6.148;2023-03-14T05:23:03;8.90;99.90
52435;DHT22;38354;52.892;6.148;2023-03-14T05:25:29;8.90;99.90
52435;DHT22;38354;52.892;6.148;2023-03-14T05:27:55;8.90;99.90
52435;DHT22;38354;52.892;6.148;2023-03-14T05:30:21;8.80;99.90
52435;DHT22;38354;52.892;6.148;2023-03-14T05:32:47;8.90;99.90
52435;DHT22;38354;52.892;6.148;2023-03-14T05:35:13;8.80;99.90
52435;DHT22;38354;52.892;6.148;2023-03-14T05:37:39;8.80;99.90
52435;DHT22;38354;52.892;6.148;2023-03-14T05:40:06;8.70;99.90
52435;DHT22;38354;52.892;6.148;2023-03-14T05:42:32;8.80;99.90
52435;DHT22;38354;52.892;6.148;2023-03-14T05:44:58;8.70;99.90
52435;DHT22;38354;52.892;6.148;2023-03-14T05:47:24;8.70;99.90
52435;DHT22;38354;52.892;6.148;2023-03-14T05:49:50;8.70;99.90
52435;DHT22;38354;52.892;6.148;2023-03-14T05:52:15;8.70;99.90
52435;DHT22;38354;52.892;6.148;2023-03-14T05:54:41;8.70;99.90
52435;DHT22;38354;52.892;6.148;2023-03-14T05:57:07;8.70;99.90
52435;DHT22;38354;52.892;6.148;2023-03-14T05:59:32;8.70;99.90
52435;DHT22;38354;52.892;6.148;2023-03-14T06:01:58;8.70;99.90
52435;DHT22;38354;52.892;6.148;2023-03-14T06:04:24;8.70;99.90
52435;DHT22;38354;52.892;6.148;2023-03-14T06:06:50;8.70;99.90
52435;DHT22;38354;52.892;6.148;2023-03-14T06:09:16;8.70;99.90
52435;DHT22;38354;52.892;6.148;2023-03-14T06:11:42;8.70;99.90
52435;DHT22;38354;52.892;6.148;2023-03-14T06:14:07;8.70;99.90
52435;DHT22;38354;52.892;6.148;2023-03-14T06:16:33;8.70;99.90
52435;DHT22;38354;52.892;6.148;2023-03-14T06:18:59;8.70;99.90
52435;DHT22;38354;52.892;6.148;2023-03-14T06:21:25;8.70;99.90
52435;DHT22;38354;52.892;6.148;2023-03-14T06:23:51;8.70;99.90
52435;DHT22;38354;52.892;6.148;2023-03-14T06:26:16;8.70;99.90
52435;DHT22;38354;52.892;6.148;2023-03-14T06:28:42;8.70;99.90
52435;DHT22;38354;52.892;6.148;2023-03-14T06:31:08;8.70;99.90
52435;DHT22;38354;52.892;6.148;2023-03-14T06:33:33;8.80;99.90
52435;DHT22;38354;52.892;6.148;2023-03-14T06:35:59;8.70;99.90
52435;DHT22;38354;52.892;6.148;2023-03-14T06:38:25;8.70;99.90
52435;DHT22;38354;52.892;6.148;2023-03-14T06:40:50;8.70;99.90
52435;DHT22;38354;52.892;6.148;2023-03-14T06:43:16;8.60;99.90
52435;DHT22;38354;52.892;6.148;2023-03-14T06:45:41;8.50;99.90
52435;DHT22;38354;52.892;6.148;2023-03-14T06:48:07;8.40;99.90
52435;DHT22;38354;52.892;6.148;2023-03-14T06:50:33;8.30;99.90
52435;DHT22;38354;52.892;6.148;2023-03-14T06:52:59;8.20;99.90
52435;DHT22;38354;52.892;6.148;2023-03-14T06:55:25;8.10;99.90
52435;DHT22;38354;52.892;6.148;2023-03-14T06:57:51;8.00;99.90
52435;DHT22;38354;52.892;6.148;2023-03-14T07:08:07;6.80;99.90
52435;DHT22;38354;52.892;6.148;2023-03-14T07:13:38;6.60;99.90
52435;DHT22;38354;52.892;6.148;2023-03-14T07:16:55;6.40;99.90
52435;DHT22;38354;52.892;6.148;2023-03-14T07:22:43;6.20;99.90
52435;DHT22;38354;52.892;6.148;2023-03-14T07:25:36;6.00;99.90
52435;DHT22;38354;52.892;6.148;2023-03-14T07:28:08;5.90;99.90
52435;DHT22;38354;52.892;6.148;2023-03-14T07:30:34;5.70;99.90
52435;DHT22;38354;52.892;6.148;2023-03-14T07:33:11;5.60;99.90
52435;DHT22;38354;52.892;6.148;2023-03-14T07:35:43;5.60;99.90
52435;DHT22;38354;52.892;6.148;2023-03-14T07:38:08;5.50;99.90
52435;DHT22;38354;52.892;6.148;2023-03-14T07:40:36;5.40;99.90
52435;DHT22;38354;52.892;6.148;2023-03-14T08:05:38;5.10;99.90
52435;DHT22;38354;52.892;6.148;2023-03-14T08:08:05;5.10;99.90
52435;DHT22;38354;52.892;6.148;2023-03-14T08:13:17;5.00;99.90
52435;DHT22;38354;52.892;6.148;2023-03-14T08:15:46;5.10;99.90
52435;DHT22;38354;52.892;6.148;2023-03-14T08:18:29;5.10;99.90
52435;DHT22;38354;52.892;6.148;2023-03-14T08:20:57;5.20;99.90
52435;DHT22;38354;52.892;6.148;2023-03-14T08:23:23;5.30;99.90
52435;DHT22;38354;52.892;6.148;2023-03-14T08:25:50;5.20;99.90
52435;DHT22;38354;52.892;6.148;2023-03-14T08:28:16;5.30;99.90
52435;DHT22;38354;52.892;6.148;2023-03-14T08:30:42;5.20;99.90
52435;DHT22;38354;52.892;6.148;2023-03-14T08:33:07;5.30;99.90
52435;DHT22;38354;52.892;6.148;2023-03-14T08:35:39;5.30;99.90
52435;DHT22;38354;52.892;6.148;2023-03-14T08:38:11;5.40;99.90
52435;DHT22;38354;52.892;6.148;2023-03-14T08:40:37;5.40;99.90
52435;DHT22;38354;52.892;6.148;2023-03-14T08:43:03;5.40;99.90
52435;DHT22;38354;52.892;6.148;2023-03-14T08:45:28;5.40;99.90
52435;DHT22;38354;52.892;6.148;2023-03-14T08:47:54;5.50;99.90
52435;DHT22;38354;52.892;6.148;2023-03-14T08:50:20;5.50;99.90
52435;DHT22;38354;52.892;6.148;2023-03-14T08:52:45;5.60;99.90
52435;DHT22;38354;52.892;6.148;2023-03-14T08:55:11;5.70;99.90
52435;DHT22;38354;52.892;6.148;2023-03-14T08:57:37;5.80;99.90
52435;DHT22;38354;52.892;6.148;2023-03-14T09:00:04;6.00;99.90
52435;DHT22;38354;52.892;6.148;2023-03-14T09:02:41;6.00;99.90
52435;DHT22;38354;52.892;6.148;2023-03-14T09:05:07;6.00;99.90
52435;DHT22;38354;52.892;6.148;2023-03-14T09:07:33;6.10;99.90
52435;DHT22;38354;52.892;6.148;2023-03-14T09:09:59;6.10;99.90
52435;DHT22;38354;52.892;6.148;2023-03-14T09:12:24;6.30;99.90
52435;DHT22;38354;52.892;6.148;2023-03-14T09:14:50;6.50;99.90
52435;DHT22;38354;52.892;6.148;2023-03-14T09:17:16;6.90;99.90
52435;DHT22;38354;52.892;6.148;2023-03-14T09:19:41;7.10;99.90
52435;DHT22;38354;52.892;6.148;2023-03-14T09:22:07;7.10;99.90
52435;DHT22;38354;52.892;6.148;2023-03-14T09:24:33;7.10;99.90
52435;DHT22;38354;52.892;6.148;2023-03-14T09:26:59;7.00;99.90
52435;DHT22;38354;52.892;6.148;2023-03-14T09:29:24;7.00;99.90
52435;DHT22;38354;52.892;6.148;2023-03-14T09:31:50;6.90;99.90
52435;DHT22;38354;52.892;6.148;2023-03-14T09:34:16;6.80;99.90
52435;DHT22;38354;52.892;6.148;2023-03-14T09:36:41;6.70;99.90
52435;DHT22;38354;52.892;6.148;2023-03-14T09:39:10;6.50;99.90
52435;DHT22;38354;52.892;6.148;2023-03-14T09:41:42;6.50;99.90
52435;DHT22;38354;52.892;6.148;2023-03-14T09:44:19;6.40;99.90
52435;DHT22;38354;52.892;6.148;2023-03-14T09:46:50;6.30;99.90
52435;DHT22;38354;52.892;6.148;2023-03-14T09:49:25;6.20;99.90
52435;DHT22;38354;52.892;6.148;2023-03-14T09:51:54;6.10;99.90
52435;DHT22;38354;52.892;6.148;2023-03-14T09:54:37;6.20;99.90
52435;DHT22;38354;52.892;6.148;2023-03-14T09:57:04;6.20;99.90
52435;DHT22;38354;52.892;6.148;2023-03-14T09:59:31;6.30;99.90
52435;DHT22;38354;52.892;6.148;2023-03-14T10:02:01;6.40;99.90
52435;DHT22;38354;52.892;6.148;2023-03-14T10:04:28;6.60;99.90
52435;DHT22;38354;52.892;6.148;2023-03-14T10:06:55;6.70;99.90
52435;DHT22;38354;52.892;6.148;2023-03-14T10:09:23;6.80;99.90
52435;DHT22;38354;52.892;6.148;2023-03-14T10:11:55;6.80;99.90
52435;DHT22;38354;52.892;6.148;2023-03-14T10:14:30;6.80;99.90
52435;DHT22;38354;52.892;6.148;2023-03-14T10:17:05;6.70;99.90
52435;DHT22;38354;52.892;6.148;2023-03-14T10:19:31;6.60;99.90
52435;DHT22;38354;52.892;6.148;2023-03-14T10:22:00;6.60;99.90
52435;DHT22;38354;52.892;6.148;2023-03-14T10:24:29;6.70;99.90
52435;DHT22;38354;52.892;6.148;2023-03-14T10:26:59;6.80;99.90
52435;DHT22;38354;52.892;6.148;2023-03-14T10:29:29;6.90;99.90
52435;DHT22;38354;52.892;6.148;2023-03-14T10:31:59;7.00;99.90
52435;DHT22;38354;52.892;6.148;2023-03-14T10:34:35;7.10;99.90
52435;DHT22;38354;52.892;6.148;2023-03-14T10:37:24;7.10;99.90
52435;DHT22;38354;52.892;6.148;2023-03-14T10:39:55;7.10;99.90
52435;DHT22;38354;52.892;6.148;2023-03-14T10:42:27;7.20;99.90
52435;DHT22;38354;52.892;6.148;2023-03-14T10:44:57;7.20;99.90
52435;DHT22;38354;52.892;6.148;2023-03-14T10:47:26;7.20;99.90
52435;DHT22;38354;52.892;6.148;2023-03-14T10:49:52;7.20;99.90
52435;DHT22;38354;52.892;6.148;2023-03-14T10:52:26;7.30;99.90
52435;DHT22;38354;52.892;6.148;2023-03-14T10:54:58;7.50;99.90
52435;DHT22;38354;52.892;6.148;2023-03-14T10:57:25;7.60;99.90
52435;DHT22;38354;52.892;6.148;2023-03-14T10:59:52;7.50;99.90
52435;DHT22;38354;52.892;6.148;2023-03-14T11:05:03;7.30;99.90
52435;DHT22;38354;52.892;6.148;2023-03-14T11:07:41;7.50;99.90
52435;DHT22;38354;52.892;6.148;2023-03-14T11:15:35;8.00;99.90
52435;DHT22;38354;52.892;6.148;2023-03-14T11:20:53;8.00;99.90
52435;DHT22;38354;52.892;6.148;2023-03-14T11:23:23;8.20;99.90
52435;DHT22;38354;52.892;6.148;2023-03-14T11:26:17;8.30;99.90
52435;DHT22;38354;52.892;6.148;2023-03-14T11:28:50;8.20;99.90
52435;DHT22;38354;52.892;6.148;2023-03-14T11:31:27;8.20;99.90
52435;DHT22;38354;52.892;6.148;2023-03-14T11:36:31;8.00;99.90
52435;DHT22;38354;52.892;6.148;2023-03-14T11:38:59;8.00;99.90
52435;DHT22;38354;52.892;6.148;2023-03-14T11:41:40;8.20;99.90
52435;DHT22;38354;52.892;6.148;2023-03-14T11:44:29;8.40;99.90
52435;DHT22;38354;52.892;6.148;2023-03-14T11:47:12;8.50;99.90
52435;DHT22;38354;52.892;6.148;2023-03-14T11:52:17;8.60;99.90
52435;DHT22;38354;52.892;6.148;2023-03-14T11:55:06;8.70;99.90
52435;DHT22;38354;52.892;6.148;2023-03-14T11:57:34;8.90;99.90
52435;DHT22;38354;52.892;6.148;2023-03-14T12:00:16;8.80;99.90
52435;DHT22;38354;52.892;6.148;2023-03-14T12:10:49;9.60;99.90
52435;DHT22;38354;52.892;6.148;2023-03-14T12:13:16;9.50;99.90
52435;DHT22;38354;52.892;6.148;2023-03-14T12:16:23;9.50;99.90
52435;DHT22;38354;52.892;6.148;2023-03-14T12:18:51;9.80;99.90
52435;DHT22;38354;52.892;6.148;2023-03-14T12:21:18;9.90;99.90
52435;DHT22;38354;52.892;6.148;2023-03-14T12:23:53;10.10;99.90
52435;DHT22;38354;52.892;6.148;2023-03-14T12:26:28;10.00;99.90
52435;DHT22;38354;52.892;6.148;2023-03-14T12:29:15;9.90;99.90
52435;DHT22;38354;52.892;6.148;2023-03-14T12:31:42;9.80;99.90
52435;DHT22;38354;52.892;6.148;2023-03-14T12:39:19;9.50;99.90
52435;DHT22;38354;52.892;6.148;2023-03-14T12:41:53;9.40;99.90
52435;DHT22;38354;52.892;6.148;2023-03-14T12:47:14;8.80;99.90
52435;DHT22;38354;52.892;6.148;2023-03-14T12:49:50;8.50;99.90
52435;DHT22;38354;52.892;6.148;2023-03-14T12:52:49;8.30;99.90
52435;DHT22;38354;52.892;6.148;2023-03-14T12:55:38;8.30;99.90
52435;DHT22;38354;52.892;6.148;2023-03-14T12:58:23;9.00;99.90
52435;DHT22;38354;52.892;6.148;2023-03-14T13:00:56;9.30;99.90
52435;DHT22;38354;52.892;6.148;2023-03-14T13:03:24;9.60;99.90
52435;DHT22;38354;52.892;6.148;2023-03-14T13:05:57;9.40;99.90
52435;DHT22;38354;52.892;6.148;2023-03-14T13:08:44;9.00;99.90
52435;DHT22;38354;52.892;6.148;2023-03-14T13:11:19;8.70;99.90
52435;DHT22;38354;52.892;6.148;2023-03-14T13:13:48;8.90;99.90
52435;DHT22;38354;52.892;6.148;2023-03-14T13:16:18;9.30;98.30
52435;DHT22;38354;52.892;6.148;2023-03-14T13:18:49;9.60;98.20
52435;DHT22;38354;52.892;6.148;2023-03-14T13:23:40;9.60;99.80
52435;DHT22;38354;52.892;6.148;2023-03-14T13:26:13;9.70;99.90
52435;DHT22;38354;52.892;6.148;2023-03-14T13:28:39;9.70;99.90
52435;DHT22;38354;52.892;6.148;2023-03-14T13:31:05;9.40;97.70
52435;DHT22;38354;52.892;6.148;2023-03-14T13:33:33;9.10;98.30
52435;DHT22;38354;52.892;6.148;2023-03-14T13:36:01;8.60;98.70
52435;DHT22;38354;52.892;6.148;2023-03-14T13:38:32;8.40;99.70
52435;DHT22;38354;52.892;6.148;2023-03-14T13:40:59;8.30;99.90
52435;DHT22;38354;52.892;6.148;2023-03-14T13:48:31;8.60;98.50
52435;DHT22;38354;52.892;6.148;2023-03-14T13:51:06;8.80;99.10
52435;DHT22;38354;52.892;6.148;2023-03-14T13:53:41;9.10;99.90
52435;DHT22;38354;52.892;6.148;2023-03-14T13:56:10;9.40;99.00
52435;DHT22;38354;52.892;6.148;2023-03-14T13:58:38;9.50;98.40
52435;DHT22;38354;52.892;6.148;2023-03-14T14:01:19;9.70;98.50
52435;DHT22;38354;52.892;6.148;2023-03-14T14:03:47;9.80;97.80
52435;DHT22;38354;52.892;6.148;2023-03-14T14:06:35;9.70;99.20
52435;DHT22;38354;52.892;6.148;2023-03-14T14:09:11;9.30;98.40
52435;DHT22;38354;52.892;6.148;2023-03-14T14:17:20;9.00;99.90
52435;DHT22;38354;52.892;6.148;2023-03-14T14:19:48;9.10;99.90
52435;DHT22;38354;52.892;6.148;2023-03-14T14:22:14;9.00;97.60
52435;DHT22;38354;52.892;6.148;2023-03-14T14:24:40;8.60;97.50
52435;DHT22;38354;52.892;6.148;2023-03-14T14:29:37;8.50;97.10
52435;DHT22;38354;52.892;6.148;2023-03-14T14:37:22;8.40;96.30
52435;DHT22;38354;52.892;6.148;2023-03-14T14:39:51;8.50;96.20
52435;DHT22;38354;52.892;6.148;2023-03-14T14:42:19;8.50;96.20
52435;DHT22;38354;52.892;6.148;2023-03-14T14:44:50;8.70;97.00
52435;DHT22;38354;52.892;6.148;2023-03-14T14:47:22;8.90;96.80
52435;DHT22;38354;52.892;6.148;2023-03-14T14:49:49;9.00;98.30
52435;DHT22;38354;52.892;6.148;2023-03-14T14:52:45;9.10;97.30
52435;DHT22;38354;52.892;6.148;2023-03-14T14:55:19;9.20;98.10
52435;DHT22;38354;52.892;6.148;2023-03-14T14:57:50;9.20;97.20
52435;DHT22;38354;52.892;6.148;2023-03-14T15:00:22;8.90;97.00
52435;DHT22;38354;52.892;6.148;2023-03-14T15:02:49;8.50;95.90
52435;DHT22;38354;52.892;6.148;2023-03-14T15:05:25;8.10;97.20
52435;DHT22;38354;52.892;6.148;2023-03-14T15:07:51;7.90;98.30
52435;DHT22;38354;52.892;6.148;2023-03-14T15:10:22;7.70;99.70
52435;DHT22;38354;52.892;6.148;2023-03-14T15:12:48;7.60;99.90
52435;DHT22;38354;52.892;6.148;2023-03-14T15:15:14;7.40;99.90
52435;DHT22;38354;52.892;6.148;2023-03-14T15:17:40;7.10;99.90
52435;DHT22;38354;52.892;6.148;2023-03-14T15:20:11;6.90;99.90
52435;DHT22;38354;52.892;6.148;2023-03-14T15:22:39;6.70;99.90
52435;DHT22;38354;52.892;6.148;2023-03-14T15:25:05;6.80;99.90
52435;DHT22;38354;52.892;6.148;2023-03-14T15:27:31;6.90;99.90
52435;DHT22;38354;52.892;6.148;2023-03-14T15:29:58;7.10;99.90
52435;DHT22;38354;52.892;6.148;2023-03-14T15:32:24;7.40;99.90
52435;DHT22;38354;52.892;6.148;2023-03-14T15:34:54;7.40;99.90
52435;DHT22;38354;52.892;6.148;2023-03-14T15:37:20;7.30;99.90
52435;DHT22;38354;52.892;6.148;2023-03-14T15:39:45;7.30;99.90
52435;DHT22;38354;52.892;6.148;2023-03-14T15:42:11;7.40;99.90
52435;DHT22;38354;52.892;6.148;2023-03-14T15:44:37;7.70;99.90
52435;DHT22;38354;52.892;6.148;2023-03-14T15:47:04;7.80;99.90
52435;DHT22;38354;52.892;6.148;2023-03-14T15:49:31;7.90;99.90
52435;DHT22;38354;52.892;6.148;2023-03-14T15:51:57;8.00;99.90
52435;DHT22;38354;52.892;6.148;2023-03-14T15:54:23;8.00;99.90
52435;DHT22;38354;52.892;6.148;2023-03-14T15:56:48;7.80;99.90
52435;DHT22;38354;52.892;6.148;2023-03-14T15:59:14;7.70;99.90
52435;DHT22;38354;52.892;6.148;2023-03-14T16:01:40;7.70;99.90
52435;DHT22;38354;52.892;6.148;2023-03-14T16:04:05;7.60;99.90
52435;DHT22;38354;52.892;6.148;2023-03-14T16:06:31;7.50;99.90
52435;DHT22;38354;52.892;6.148;2023-03-14T16:08:57;7.30;99.90
52435;DHT22;38354;52.892;6.148;2023-03-14T16:11:23;7.10;99.90
52435;DHT22;38354;52.892;6.148;2023-03-14T16:13:49;6.80;99.90
52435;DHT22;38354;52.892;6.148;2023-03-14T16:16:15;6.40;99.90
52435;DHT22;38354;52.892;6.148;2023-03-14T16:18:41;6.20;99.90
52435;DHT22;38354;52.892;6.148;2023-03-14T16:21:11;5.90;99.90
52435;DHT22;38354;52.892;6.148;2023-03-14T16:23:37;5.90;99.90
52435;DHT22;38354;52.892;6.148;2023-03-14T16:26:09;5.80;99.90
52435;DHT22;38354;52.892;6.148;2023-03-14T16:28:35;5.80;99.90
52435;DHT22;38354;52.892;6.148;2023-03-14T16:31:03;5.90;99.90
52435;DHT22;38354;52.892;6.148;2023-03-14T16:33:29;6.00;99.90
52435;DHT22;38354;52.892;6.148;2023-03-14T16:35:56;6.10;99.90
52435;DHT22;38354;52.892;6.148;2023-03-14T16:38:23;6.30;99.90
52435;DHT22;38354;52.892;6.148;2023-03-14T16:41:00;6.40;99.90
52435;DHT22;38354;52.892;6.148;2023-03-14T16:43:27;6.50;99.90
52435;DHT22;38354;52.892;6.148;2023-03-14T16:45:52;6.50;99.90
52435;DHT22;38354;52.892;6.148;2023-03-14T16:48:19;6.50;99.90
52435;DHT22;38354;52.892;6.148;2023-03-14T16:50:45;6.50;99.90
52435;DHT22;38354;52.892;6.148;2023-03-14T16:53:10;6.40;99.90
52435;DHT22;38354;52.892;6.148;2023-03-14T16:55:42;6.30;99.90
52435;DHT22;38354;52.892;6.148;2023-03-14T16:58:08;6.30;99.90
52435;DHT22;38354;52.892;6.148;2023-03-14T17:00:34;6.20;99.90
52435;DHT22;38354;52.892;6.148;2023-03-14T17:03:00;6.10;99.90
52435;DHT22;38354;52.892;6.148;2023-03-14T17:05:26;6.10;99.90
52435;DHT22;38354;52.892;6.148;2023-03-14T17:07:51;6.00;99.90
52435;DHT22;38354;52.892;6.148;2023-03-14T17:10:17;6.00;99.90
52435;DHT22;38354;52.892;6.148;2023-03-14T17:12:44;6.00;99.90
52435;DHT22;38354;52.892;6.148;2023-03-14T17:15:10;5.90;99.90
52435;DHT22;38354;52.892;6.148;2023-03-14T17:17:36;5.80;99.90
52435;DHT22;38354;52.892;6.148;2023-03-14T17:20:03;5.80;99.90
52435;DHT22;38354;52.892;6.148;2023-03-14T17:22:29;5.70;99.90
52435;DHT22;38354;52.892;6.148;2023-03-14T17:24:55;5.60;99.90
52435;DHT22;38354;52.892;6.148;2023-03-14T17:27:20;5.60;99.90
52435;DHT22;38354;52.892;6.148;2023-03-14T17:29:47;5.60;99.90
52435;DHT22;38354;52.892;6.148;2023-03-14T17:32:14;5.60;99.90
52435;DHT22;38354;52.892;6.148;2023-03-14T17:34:41;5.60;99.90
52435;DHT22;38354;52.892;6.148;2023-03-14T17:37:06;5.30;99.90
52435;DHT22;38354;52.892;6.148;2023-03-14T17:39:32;5.00;99.90
52435;DHT22;38354;52.892;6.148;2023-03-14T17:41:58;4.60;99.90
52435;DHT22;38354;52.892;6.148;2023-03-14T17:44:24;4.30;99.90
52435;DHT22;38354;52.892;6.148;2023-03-14T17:46:49;4.10;99.90
52435;DHT22;38354;52.892;6.148;2023-03-14T17:49:15;3.90;99.90
52435;DHT22;38354;52.892;6.148;2023-03-14T17:51:40;3.70;99.90
52435;DHT22;38354;52.892;6.148;2023-03-14T17:54:06;3.70;99.90
52435;DHT22;38354;52.892;6.148;2023-03-14T17:56:32;3.70;99.90
52435;DHT22;38354;52.892;6.148;2023-03-14T17:58:57;3.70;99.90
52435;DHT22;38354;52.892;6.148;2023-03-14T18:01:23;3.70;99.90
52435;DHT22;38354;52.892;6.148;2023-03-14T18:04:08;3.80;99.90
52435;DHT22;38354;52.892;6.148;2023-03-14T18:06:56;3.80;99.90
52435;DHT22;38354;52.892;6.148;2023-03-14T18:56:09;3.70;99.90
52435;DHT22;38354;52.892;6.148;2023-03-14T18:58:37;3.70;99.90
52435;DHT22;38354;52.892;6.148;2023-03-14T19:01:22;3.70;99.90
52435;DHT22;38354;52.892;6.148;2023-03-14T19:04:20;3.60;99.90
52435;DHT22;38354;52.892;6.148;2023-03-14T19:06:46;3.70;99.90
52435;DHT22;38354;52.892;6.148;2023-03-14T19:09:13;3.70;99.90
52435;DHT22;38354;52.892;6.148;2023-03-14T19:14:19;3.70;99.90
52435;DHT22;38354;52.892;6.148;2023-03-14T19:16:45;3.60;99.90
52435;DHT22;38354;52.892;6.148;2023-03-14T19:19:11;3.60;99.90
52435;DHT22;38354;52.892;6.148;2023-03-14T19:21:36;3.60;99.90
52435;DHT22;38354;52.892;6.148;2023-03-14T19:24:03;3.60;99.90
52435;DHT22;38354;52.892;6.148;2023-03-14T19:26:30;3.60;99.90
52435;DHT22;38354;52.892;6.148;2023-03-14T19:28:57;3.60;99.90
52435;DHT22;38354;52.892;6.148;2023-03-14T19:31:24;3.60;99.90
52435;DHT22;38354;52.892;6.148;2023-03-14T19:33:52;3.60;99.90
52435;DHT22;38354;52.892;6.148;2023-03-14T19:36:29;3.60;99.90
52435;DHT22;38354;52.892;6.148;2023-03-14T19:38:56;3.70;99.90
52435;DHT22;38354;52.892;6.148;2023-03-14T19:41:24;3.60;99.90
52435;DHT22;38354;52.892;6.148;2023-03-14T19:43:51;3.60;99.90
52435;DHT22;38354;52.892;6.148;2023-03-14T19:46:16;3.60;99.90
52435;DHT22;38354;52.892;6.148;2023-03-14T19:48:42;3.60;99.90
52435;DHT22;38354;52.892;6.148;2023-03-14T19:51:11;3.50;99.90
52435;DHT22;38354;52.892;6.148;2023-03-14T19:53:36;3.50;99.90
52435;DHT22;38354;52.892;6.148;2023-03-14T19:56:02;3.60;99.90
52435;DHT22;38354;52.892;6.148;2023-03-14T19:58:29;3.60;99.90
52435;DHT22;38354;52.892;6.148;2023-03-14T20:00:55;3.60;99.90
52435;DHT22;38354;52.892;6.148;2023-03-14T20:03:22;3.60;99.90
52435;DHT22;38354;52.892;6.148;2023-03-14T20:05:51;3.70;99.90
52435;DHT22;38354;52.892;6.148;2023-03-14T20:08:19;3.70;99.90
52435;DHT22;38354;52.892;6.148;2023-03-14T20:10:45;3.80;99.90
52435;DHT22;38354;52.892;6.148;2023-03-14T20:13:11;3.80;99.90
52435;DHT22;38354;52.892;6.148;2023-03-14T20:15:39;3.80;99.90
52435;DHT22;38354;52.892;6.148;2023-03-14T20:18:05;3.90;99.90
52435;DHT22;38354;52.892;6.148;2023-03-14T20:20:30;3.90;99.90
52435;DHT22;38354;52.892;6.148;2023-03-14T20:22:56;3.90;99.90
52435;DHT22;38354;52.892;6.148;2023-03-14T20:25:22;3.90;99.90
52435;DHT22;38354;52.892;6.148;2023-03-14T20:27:49;3.90;99.90
52435;DHT22;38354;52.892;6.148;2023-03-14T20:30:17;3.90;99.90
52435;DHT22;38354;52.892;6.148;2023-03-14T20:32:47;3.90;99.90
52435;DHT22;38354;52.892;6.148;2023-03-14T20:35:13;3.90;99.90
52435;DHT22;38354;52.892;6.148;2023-03-14T20:37:44;3.80;99.90
52435;DHT22;38354;52.892;6.148;2023-03-14T20:40:10;3.80;99.90
52435;DHT22;38354;52.892;6.148;2023-03-14T20:42:38;3.70;99.90
52435;DHT22;38354;52.892;6.148;2023-03-14T20:45:04;3.70;99.90
52435;DHT22;38354;52.892;6.148;2023-03-14T20:47:30;3.70;99.90
52435;DHT22;38354;52.892;6.148;2023-03-14T20:49:57;3.70;99.90
52435;DHT22;38354;52.892;6.148;2023-03-14T20:52:26;3.60;99.90
52435;DHT22;38354;52.892;6.148;2023-03-14T20:54:51;3.60;99.90
52435;DHT22;38354;52.892;6.148;2023-03-14T20:57:17;3.60;99.90
52435;DHT22;38354;52.892;6.148;2023-03-14T20:59:43;3.60;99.90
52435;DHT22;38354;52.892;6.148;2023-03-14T21:02:10;3.60;99.90
52435;DHT22;38354;52.892;6.148;2023-03-14T21:04:36;3.50;99.90
52435;DHT22;38354;52.892;6.148;2023-03-14T21:07:02;3.50;99.90
52435;DHT22;38354;52.892;6.148;2023-03-14T21:09:27;3.50;99.90
52435;DHT22;38354;52.892;6.148;2023-03-14T21:11:53;3.50;99.90
52435;DHT22;38354;52.892;6.148;2023-03-14T21:14:19;3.50;99.90
52435;DHT22;38354;52.892;6.148;2023-03-14T21:16:47;3.50;99.90
52435;DHT22;38354;52.892;6.148;2023-03-14T21:19:13;3.50;99.90
52435;DHT22;38354;52.892;6.148;2023-03-14T21:21:39;3.50;99.90
52435;DHT22;38354;52.892;6.148;2023-03-14T21:24:06;3.50;99.90
52435;DHT22;38354;52.892;6.148;2023-03-14T21:26:32;3.60;99.90
52435;DHT22;38354;52.892;6.148;2023-03-14T21:28:58;3.60;99.90
52435;DHT22;38354;52.892;6.148;2023-03-14T21:31:28;3.60;99.90
52435;DHT22;38354;52.892;6.148;2023-03-14T21:33:53;3.70;99.90
52435;DHT22;38354;52.892;6.148;2023-03-14T21:36:19;3.70;99.90
52435;DHT22;38354;52.892;6.148;2023-03-14T21:38:45;3.70;99.90
52435;DHT22;38354;52.892;6.148;2023-03-14T21:41:11;3.70;99.90
52435;DHT22;38354;52.892;6.148;2023-03-14T21:43:40;3.70;99.90
52435;DHT22;38354;52.892;6.148;2023-03-14T21:46:06;3.80;99.90
52435;DHT22;38354;52.892;6.148;2023-03-14T21:48:32;3.70;99.90
52435;DHT22;38354;52.892;6.148;2023-03-14T21:50:58;3.70;99.90
52435;DHT22;38354;52.892;6.148;2023-03-14T21:53:24;3.80;99.90
52435;DHT22;38354;52.892;6.148;2023-03-14T21:55:54;3.80;99.90
52435;DHT22;38354;52.892;6.148;2023-03-14T21:58:20;3.90;99.90
52435;DHT22;38354;52.892;6.148;2023-03-14T22:00:46;3.90;99.90
52435;DHT22;38354;52.892;6.148;2023-03-14T22:03:14;4.00;99.90
52435;DHT22;38354;52.892;6.148;2023-03-14T22:05:44;4.00;99.90
52435;DHT22;38354;52.892;6.148;2023-03-14T22:08:12;3.90;99.90
52435;DHT22;38354;52.892;6.148;2023-03-14T22:10:52;4.00;99.90
52435;DHT22;38354;52.892;6.148;2023-03-14T22:13:19;3.90;99.90
52435;DHT22;38354;52.892;6.148;2023-03-14T22:15:46;3.90;99.90
52435;DHT22;38354;52.892;6.148;2023-03-14T22:18:13;3.90;99.90